createdAt,value
2022-10-03T00:01:21.981Z,0.30
2022-10-03T00:04:08.032Z,0.45
2022-10-03T00:07:21.493Z,0.47
2022-10-03T00:10:07.235Z,0.40
2022-10-03T00:12:40.464Z,0.30
2022-10-03T00:15:42.339Z,0.30
2022-10-03T00:18:47.588Z,0.40
2022-10-03T00:21:37.901Z,0.40
2022-10-03T00:24:21.656Z,0.30
2022-10-03T00:27:17.477Z,0.63
2022-10-03T00:29:51.358Z,0.40
2022-10-03T00:32:37.041Z,0.30
2022-10-03T00:35:35.177Z,1.55
2022-10-03T00:38:27.434Z,2.92
2022-10-03T00:44:31.864Z,0.38
2022-10-03T00:47:30.413Z,0.60
2022-10-03T00:50:16.702Z,0.47
2022-10-03T00:53:03.031Z,0.65
2022-10-03T00:55:54.896Z,0.40
2022-10-03T00:58:53.052Z,0.55
2022-10-03T01:01:24.933Z,0.40
2022-10-03T01:04:11.011Z,0.77
2022-10-03T01:07:11.043Z,0.60
2022-10-03T01:09:38.122Z,3.22
2022-10-03T01:12:37.724Z,0.30
2022-10-03T01:15:24.587Z,0.30
2022-10-03T01:18:03.458Z,0.43
2022-10-03T01:20:45.069Z,0.40
2022-10-03T01:23:30.414Z,0.43
2022-10-03T01:26:32.632Z,0.55
2022-10-03T01:29:37.224Z,0.38
2022-10-03T01:32:16.339Z,0.57
2022-10-03T01:35:22.622Z,0.63
2022-10-03T01:38:20.875Z,5.88
2022-10-03T01:41:01.122Z,0.70
2022-10-03T01:43:42.609Z,0.77
2022-10-03T01:46:39.056Z,0.70
2022-10-03T01:49:16.513Z,0.50
2022-10-03T01:52:11.546Z,0.70
2022-10-03T01:55:12.753Z,0.52
2022-10-03T01:58:07.560Z,0.57
2022-10-03T02:00:46.717Z,0.68
2022-10-03T02:03:25.355Z,0.65
2022-10-03T02:06:17.740Z,0.93
2022-10-03T02:08:50.270Z,0.90
2022-10-03T02:11:50.216Z,0.75
2022-10-03T02:14:42.232Z,0.60
2022-10-03T02:17:47.650Z,0.45
2022-10-03T02:20:43.370Z,0.60
2022-10-03T02:23:46.238Z,1.25
2022-10-03T02:26:46.934Z,0.50
2022-10-03T02:29:29.283Z,0.90
2022-10-03T02:32:27.673Z,0.60
2022-10-03T02:35:30.350Z,0.50
2022-10-03T02:38:19.826Z,0.73
2022-10-03T02:41:00.445Z,0.85
2022-10-03T02:43:49.553Z,0.60
2022-10-03T02:46:54.339Z,0.88
2022-10-03T02:49:51.449Z,1.05
2022-10-03T02:52:30.506Z,1.05
2022-10-03T02:55:06.620Z,1.33
2022-10-03T02:57:42.794Z,1.10
2022-10-03T03:00:14.717Z,1.25
2022-10-03T03:06:03.784Z,1.40
2022-10-03T03:09:00.345Z,1.70
2022-10-03T03:11:48.964Z,2.40
2022-10-03T03:14:42.035Z,1.90
2022-10-03T03:17:34.300Z,1.98
2022-10-03T03:23:10.811Z,2.38
2022-10-03T03:26:08.183Z,2.28
2022-10-03T03:28:45.447Z,2.72
2022-10-03T03:31:17.177Z,2.28
2022-10-03T03:34:19.161Z,2.67
2022-10-03T03:36:52.145Z,2.72
2022-10-03T03:39:40.600Z,2.95
2022-10-03T03:42:32.010Z,3.05
2022-10-03T03:45:11.381Z,2.75
2022-10-03T03:48:18.899Z,3.30
2022-10-03T03:51:02.740Z,3.13
2022-10-03T03:53:38.945Z,3.83
2022-10-03T03:56:25.195Z,3.05
2022-10-03T03:59:02.805Z,3.58
2022-10-03T04:01:49.312Z,3.38
2022-10-03T04:04:41.366Z,3.30
2022-10-03T04:07:27.449Z,4.63
2022-10-03T04:10:26.866Z,3.70
2022-10-03T04:13:25.393Z,3.80
2022-10-03T04:16:04.803Z,3.53
2022-10-03T04:18:59.671Z,3.00
2022-10-03T04:21:57.916Z,4.20
2022-10-03T04:25:05.509Z,3.00
2022-10-03T04:27:38.753Z,2.88
2022-10-03T04:30:10.029Z,2.75
2022-10-03T04:33:14.722Z,2.90
2022-10-03T04:35:50.911Z,2.88
2022-10-03T04:38:27.183Z,2.85
2022-10-03T04:41:13.150Z,3.50
2022-10-03T04:43:54.956Z,2.97
2022-10-03T04:46:38.393Z,3.45
2022-10-03T04:49:26.930Z,2.70
2022-10-03T04:52:01.172Z,3.03
2022-10-03T04:54:44.634Z,2.90
2022-10-03T04:57:44.445Z,3.25
2022-10-03T05:00:14.637Z,3.25
2022-10-03T05:03:26.907Z,3.28
2022-10-03T05:06:17.802Z,3.70
2022-10-03T05:09:01.388Z,3.13
2022-10-03T05:11:55.097Z,3.85
2022-10-03T05:14:40.481Z,4.43
2022-10-03T05:17:19.863Z,4.57
2022-10-03T05:20:13.445Z,3.70
2022-10-03T05:23:05.230Z,4.05
2022-10-03T05:26:23.171Z,4.50
2022-10-03T05:29:16.005Z,4.55
2022-10-03T05:31:53.779Z,3.95
2022-10-03T05:34:48.918Z,4.47
2022-10-03T05:37:44.130Z,4.03
2022-10-03T05:40:24.997Z,3.47
2022-10-03T05:42:58.314Z,3.83
2022-10-03T05:46:01.178Z,3.55
2022-10-03T05:48:48.965Z,3.65
2022-10-03T05:51:16.212Z,3.50
2022-10-03T05:53:58.794Z,3.30
2022-10-03T05:56:58.341Z,3.88
2022-10-03T05:59:41.102Z,3.72
2022-10-03T06:02:45.577Z,3.25
2022-10-03T06:05:25.228Z,3.63
2022-10-03T06:07:55.041Z,3.45
2022-10-03T06:10:34.215Z,3.20
2022-10-03T06:13:39.203Z,3.03
2022-10-03T06:16:41.381Z,3.22
2022-10-03T06:19:49.791Z,2.83
2022-10-03T06:22:44.537Z,2.75
2022-10-03T06:25:39.978Z,2.35
2022-10-03T06:28:38.409Z,2.50
2022-10-03T06:31:49.322Z,2.13
2022-10-03T06:34:54.024Z,1.90
2022-10-03T06:37:52.643Z,1.60
2022-10-03T06:40:48.469Z,1.58
2022-10-03T06:43:22.159Z,1.30
2022-10-03T06:46:25.664Z,1.02
2022-10-03T06:49:01.666Z,1.02
2022-10-03T06:52:01.412Z,0.70
2022-10-03T06:55:05.770Z,1.25
2022-10-03T06:57:51.688Z,1.23
2022-10-03T07:00:18.795Z,0.45
2022-10-03T07:03:21.718Z,0.95
2022-10-03T07:05:58.883Z,0.40
2022-10-03T07:08:52.759Z,0.40
2022-10-03T07:11:32.649Z,0.40
2022-10-03T07:14:18.846Z,0.70
2022-10-03T07:17:11.901Z,0.40
2022-10-03T07:19:48.218Z,0.40
2022-10-03T07:22:33.493Z,0.50
2022-10-03T07:25:24.360Z,0.70
2022-10-03T07:28:24.800Z,0.52
2022-10-03T07:31:23.075Z,0.93
2022-10-03T07:34:18.520Z,0.32
2022-10-03T07:37:23.707Z,0.60
2022-10-03T07:40:24.348Z,0.50
2022-10-03T07:43:19.464Z,0.50
2022-10-03T07:46:24.925Z,0.73
2022-10-03T07:49:13.948Z,1.02
2022-10-03T07:52:23.510Z,0.77
2022-10-03T07:55:09.612Z,0.60
2022-10-03T07:57:58.568Z,0.70
2022-10-03T08:00:40.695Z,0.75
2022-10-03T08:03:41.350Z,0.80
2022-10-03T08:06:18.863Z,0.75
2022-10-03T08:09:07.032Z,0.77
2022-10-03T08:11:52.756Z,1.00
2022-10-03T08:14:41.505Z,0.52
2022-10-03T08:17:30.036Z,0.65
2022-10-03T08:20:18.792Z,0.52
2022-10-03T08:22:59.842Z,0.55
2022-10-03T08:25:40.329Z,0.45
2022-10-03T08:28:32.955Z,0.50
2022-10-03T08:31:25.545Z,0.50
2022-10-03T08:33:56.011Z,0.50
2022-10-03T08:36:32.389Z,0.40
2022-10-03T08:39:11.912Z,0.65
2022-10-03T08:41:57.372Z,0.60
2022-10-03T08:44:52.756Z,0.63
2022-10-03T08:47:43.576Z,0.68
2022-10-03T08:50:29.209Z,0.70
2022-10-03T08:53:37.200Z,0.63
2022-10-03T08:56:49.568Z,0.57
2022-10-03T08:59:37.750Z,0.65
2022-10-03T09:02:24.380Z,0.75
2022-10-03T09:05:00.415Z,0.80
2022-10-03T09:08:10.169Z,0.60
2022-10-03T09:11:04.807Z,0.43
2022-10-03T09:14:18.216Z,0.60
2022-10-03T09:17:17.801Z,0.60
2022-10-03T09:20:00.689Z,0.40
2022-10-03T09:23:01.273Z,0.50
2022-10-03T09:26:07.446Z,0.40
2022-10-03T09:29:19.435Z,0.40
2022-10-03T09:32:08.952Z,0.40
2022-10-03T09:35:13.931Z,0.63
2022-10-03T09:38:22.110Z,0.70
2022-10-03T09:41:28.621Z,0.55
2022-10-03T09:44:17.958Z,0.50
2022-10-03T09:47:10.518Z,0.65
2022-10-03T09:50:36.635Z,0.68
2022-10-03T09:53:12.792Z,0.70
2022-10-03T09:56:04.916Z,0.73
2022-10-03T09:58:53.852Z,0.63
2022-10-03T10:01:32.957Z,0.75
2022-10-03T10:04:37.436Z,0.65
2022-10-03T10:07:36.046Z,1.00
2022-10-03T10:10:56.417Z,0.50
2022-10-03T10:14:05.816Z,1.30
2022-10-03T10:16:38.457Z,0.70
2022-10-03T10:19:41.886Z,0.60
2022-10-03T10:22:27.643Z,0.73
2022-10-03T10:25:00.802Z,0.82
2022-10-03T10:27:33.958Z,0.65
2022-10-03T10:30:09.862Z,0.47
2022-10-03T10:33:12.161Z,0.70
2022-10-03T10:36:10.507Z,0.70
2022-10-03T10:39:17.291Z,1.00
2022-10-03T10:41:44.581Z,0.93
2022-10-03T10:44:17.839Z,0.90
2022-10-03T10:47:04.131Z,0.73
2022-10-03T10:50:08.474Z,0.80
2022-10-03T10:52:54.278Z,0.57
2022-10-03T10:55:33.439Z,0.70
2022-10-03T10:58:45.381Z,0.80
2022-10-03T11:01:45.975Z,0.38
2022-10-03T11:04:38.095Z,0.43
2022-10-03T11:07:08.342Z,0.65
2022-10-03T11:10:00.746Z,0.50
2022-10-03T11:12:44.230Z,0.50
2022-10-03T11:15:47.865Z,0.50
2022-10-03T11:18:33.723Z,0.50
2022-10-03T11:21:42.738Z,0.65
2022-10-03T11:24:28.197Z,0.60
2022-10-03T11:27:43.680Z,0.80
2022-10-03T11:30:20.107Z,0.40
2022-10-03T11:33:25.596Z,0.73
2022-10-03T11:36:25.356Z,0.63
2022-10-03T11:39:02.437Z,0.77
2022-10-03T11:41:39.394Z,0.95
2022-10-03T11:44:30.691Z,1.10
2022-10-03T11:47:13.732Z,1.00
2022-10-03T11:49:54.959Z,0.90
2022-10-03T11:52:49.853Z,1.20
2022-10-03T11:55:42.210Z,0.68
2022-10-03T11:58:24.607Z,0.45
2022-10-03T12:01:18.167Z,0.60
2022-10-03T12:04:15.122Z,0.80
2022-10-03T12:07:23.709Z,0.50
2022-10-03T12:10:24.975Z,0.68
2022-10-03T12:12:55.791Z,0.80
2022-10-03T12:15:44.128Z,0.70
2022-10-03T12:18:25.850Z,0.70
2022-10-03T12:21:05.051Z,0.70
2022-10-03T12:23:53.837Z,0.70
2022-10-03T12:26:37.689Z,1.10
2022-10-03T12:29:08.968Z,0.80
2022-10-03T12:31:48.780Z,0.70
2022-10-03T12:34:44.408Z,0.80
2022-10-03T12:37:35.676Z,0.70
2022-10-03T12:40:24.304Z,0.70
2022-10-03T12:43:42.400Z,0.75
2022-10-03T12:46:19.326Z,0.77
2022-10-03T12:48:56.618Z,0.80
2022-10-03T12:51:36.180Z,0.57
2022-10-03T12:54:25.889Z,1.15
2022-10-03T12:57:35.332Z,0.80
2022-10-03T13:00:07.586Z,0.93
2022-10-03T13:02:48.804Z,0.70
2022-10-03T13:05:55.824Z,0.47
2022-10-03T13:08:40.991Z,0.55
2022-10-03T13:11:28.844Z,0.70
2022-10-03T13:14:15.730Z,0.60
2022-10-03T13:17:15.186Z,1.00
2022-10-03T13:20:11.474Z,0.82
2022-10-03T13:22:52.366Z,0.90
2022-10-03T13:25:32.215Z,1.00
2022-10-03T13:28:15.474Z,1.55
2022-10-03T13:30:51.981Z,1.15
2022-10-03T13:33:29.550Z,11.80
2022-10-03T13:36:13.010Z,5.60
2022-10-03T13:39:09.908Z,1.15
2022-10-03T13:42:10.476Z,1.17
2022-10-03T13:44:56.674Z,1.38
2022-10-03T13:47:31.606Z,1.35
2022-10-03T13:50:26.121Z,0.90
2022-10-03T13:53:01.152Z,1.73
2022-10-03T13:55:47.936Z,0.93
2022-10-03T13:58:38.372Z,1.23
2022-10-03T14:01:14.305Z,1.60
2022-10-03T14:04:21.743Z,1.40
2022-10-03T14:07:11.945Z,1.77
2022-10-03T14:09:39.340Z,1.30
2022-10-03T14:12:56.160Z,1.45
2022-10-03T14:15:40.903Z,1.52
2022-10-03T14:18:10.962Z,1.15
2022-10-03T14:20:53.543Z,1.30
2022-10-03T14:23:33.321Z,1.40
2022-10-03T14:26:12.774Z,1.27
2022-10-03T14:28:53.309Z,1.33
2022-10-03T14:31:32.770Z,1.40
2022-10-03T14:34:36.239Z,1.35
2022-10-03T14:37:36.616Z,1.92
2022-10-03T14:40:37.857Z,1.70
2022-10-03T14:43:05.190Z,2.22
2022-10-03T14:45:43.411Z,1.88
2022-10-03T14:48:50.198Z,2.53
2022-10-03T14:51:26.317Z,2.25
2022-10-03T14:53:58.032Z,2.30
2022-10-03T14:56:26.719Z,2.65
2022-10-03T14:58:57.268Z,2.88
2022-10-03T15:01:26.145Z,2.55
2022-10-03T15:04:01.955Z,2.75
2022-10-03T15:06:44.636Z,2.65
2022-10-03T15:09:21.999Z,2.60
2022-10-03T15:11:55.969Z,2.60
2022-10-03T15:14:27.883Z,2.97
2022-10-03T15:16:57.820Z,2.72
2022-10-03T15:19:37.240Z,2.63
2022-10-03T15:22:43.153Z,2.78
2022-10-03T15:25:19.966Z,2.67
2022-10-03T15:27:52.206Z,3.00
2022-10-03T15:30:31.460Z,3.17
2022-10-03T15:33:29.428Z,2.58
2022-10-03T15:36:12.793Z,3.55
2022-10-03T15:38:43.570Z,3.35
2022-10-03T15:41:17.147Z,3.33
2022-10-03T15:43:57.655Z,3.78
2022-10-03T15:46:43.493Z,3.00
2022-10-03T15:49:20.969Z,4.82
2022-10-03T15:51:48.985Z,4.30
2022-10-03T15:54:23.090Z,4.43
2022-10-03T15:57:01.539Z,5.07
2022-10-03T15:59:34.785Z,4.47
2022-10-03T16:02:32.750Z,5.00
2022-10-03T16:05:02.983Z,4.35
2022-10-03T16:07:39.089Z,4.68
2022-10-03T16:10:28.371Z,4.10
2022-10-03T16:13:04.688Z,4.47
2022-10-03T16:16:09.430Z,5.38
2022-10-03T16:18:49.331Z,5.68
2022-10-03T16:21:45.244Z,5.43
2022-10-03T16:24:32.909Z,5.93
2022-10-03T16:27:22.936Z,6.20
2022-10-03T16:29:54.995Z,5.50
2022-10-03T16:32:29.769Z,6.15
2022-10-03T16:35:07.041Z,6.50
2022-10-03T16:37:39.890Z,6.53
2022-10-03T16:40:08.721Z,6.57
2022-10-03T16:42:43.044Z,6.72
2022-10-03T16:45:31.039Z,6.72
2022-10-03T16:48:21.497Z,7.13
2022-10-03T16:50:53.641Z,7.13
2022-10-03T16:53:22.518Z,7.25
2022-10-03T16:55:57.830Z,6.80
2022-10-03T16:58:41.742Z,7.97
2022-10-03T17:01:26.816Z,6.82
2022-10-03T17:04:01.722Z,8.13
2022-10-03T17:06:35.942Z,7.05
2022-10-03T17:09:08.326Z,6.63
2022-10-03T17:11:38.683Z,7.25
2022-10-03T17:14:09.260Z,5.10
2022-10-03T17:16:44.204Z,6.93
2022-10-03T17:19:39.663Z,6.00
2022-10-03T17:22:30.261Z,7.18
2022-10-03T17:25:39.151Z,6.80
2022-10-03T17:28:12.126Z,6.55
2022-10-03T17:30:48.931Z,6.20
2022-10-03T17:33:38.217Z,5.93
2022-10-03T17:36:32.431Z,6.18
2022-10-03T17:39:05.678Z,5.28
2022-10-03T17:41:47.494Z,5.50
2022-10-03T17:44:47.309Z,5.00
2022-10-03T17:47:23.794Z,5.28
2022-10-03T17:50:19.294Z,5.22
2022-10-03T17:52:48.942Z,5.10
2022-10-03T17:55:27.388Z,4.93
2022-10-03T17:58:07.260Z,5.50
2022-10-03T18:00:56.659Z,4.70
2022-10-03T18:03:33.098Z,4.20
2022-10-03T18:06:23.050Z,4.15
2022-10-03T18:08:52.302Z,4.35
2022-10-03T18:11:24.779Z,4.15
2022-10-03T18:14:27.572Z,4.20
2022-10-03T18:16:59.272Z,4.45
2022-10-03T18:19:50.941Z,4.25
2022-10-03T18:22:30.697Z,3.13
2022-10-03T18:25:38.760Z,3.80
2022-10-03T18:28:24.479Z,4.53
2022-10-03T18:31:25.459Z,4.13
2022-10-03T18:34:00.108Z,3.38
2022-10-03T18:36:31.772Z,3.30
2022-10-03T18:39:03.678Z,3.63
2022-10-03T18:41:31.390Z,3.53
2022-10-03T18:44:00.699Z,3.13
2022-10-03T18:46:35.745Z,3.58
2022-10-03T18:49:30.111Z,3.42
2022-10-03T18:52:03.438Z,3.42
2022-10-03T18:54:56.639Z,3.08
2022-10-03T18:57:34.258Z,5.43
2022-10-03T19:00:08.233Z,3.05
2022-10-03T19:03:16.761Z,3.60
2022-10-03T19:05:59.144Z,3.38
2022-10-03T19:08:41.404Z,3.28
2022-10-03T19:11:29.501Z,3.40
2022-10-03T19:14:11.998Z,3.90
2022-10-03T19:17:17.290Z,3.33
2022-10-03T19:19:56.513Z,3.65
2022-10-03T19:22:40.819Z,3.30
2022-10-03T19:25:19.328Z,2.90
2022-10-03T19:27:53.014Z,4.30
2022-10-03T19:30:26.891Z,3.30
2022-10-03T19:32:59.198Z,3.70
2022-10-03T19:35:28.562Z,4.40
2022-10-03T19:38:04.187Z,3.80
2022-10-03T19:40:53.529Z,3.22
2022-10-03T19:43:37.771Z,3.28
2022-10-03T19:46:23.327Z,3.00
2022-10-03T19:49:30.863Z,3.45
2022-10-03T19:52:34.556Z,3.30
2022-10-03T19:55:24.913Z,3.42
2022-10-03T19:57:53.871Z,3.65
2022-10-03T20:00:28.169Z,3.38
2022-10-03T20:02:58.498Z,2.80
2022-10-03T20:06:12.607Z,2.95
2022-10-03T20:08:39.844Z,3.70
2022-10-03T20:11:21.626Z,3.15
2022-10-03T20:13:50.133Z,3.03
2022-10-03T20:16:35.891Z,2.58
2022-10-03T20:19:16.536Z,2.55
2022-10-03T20:21:53.383Z,2.90
2022-10-03T20:24:34.014Z,2.38
2022-10-03T20:27:42.498Z,2.92
2022-10-03T20:30:31.374Z,2.40
2022-10-03T20:32:59.714Z,2.75
2022-10-03T20:35:32.142Z,2.58
2022-10-03T20:38:23.258Z,2.35
2022-10-03T20:41:10.071Z,2.40
2022-10-03T20:43:59.901Z,2.58
2022-10-03T20:46:40.797Z,2.92
2022-10-03T20:49:15.829Z,2.40
2022-10-03T20:52:05.662Z,2.15
2022-10-03T20:54:55.981Z,2.55
2022-10-03T20:57:32.447Z,1.90
2022-10-03T21:00:16.262Z,2.53
2022-10-03T21:03:04.167Z,2.35
2022-10-03T21:05:38.112Z,2.20
2022-10-03T21:08:22.463Z,2.35
2022-10-03T21:10:59.161Z,2.30
2022-10-03T21:13:26.485Z,2.25
2022-10-03T21:16:00.218Z,1.90
2022-10-03T21:18:38.043Z,2.40
2022-10-03T21:21:12.713Z,1.95
2022-10-03T21:23:53.807Z,2.15
2022-10-03T21:26:24.909Z,2.83
2022-10-03T21:29:17.163Z,1.93
2022-10-03T21:32:10.182Z,2.47
2022-10-03T21:34:40.173Z,2.15
2022-10-03T21:37:22.714Z,3.33
2022-10-03T21:40:03.487Z,2.70
2022-10-03T21:42:44.963Z,2.38
2022-10-03T21:45:26.664Z,2.30
2022-10-03T21:50:58.442Z,2.28
2022-10-03T21:53:53.013Z,2.08
2022-10-03T21:56:54.904Z,2.17
2022-10-03T21:59:34.150Z,2.40
2022-10-03T22:02:01.826Z,2.33
2022-10-03T22:04:48.753Z,2.90
2022-10-03T22:07:18.942Z,2.83
2022-10-03T22:09:49.817Z,2.75
2022-10-03T22:12:18.070Z,2.60
2022-10-03T22:14:55.628Z,2.30
2022-10-03T22:17:42.648Z,2.92
2022-10-03T22:20:54.519Z,2.45
2022-10-03T22:23:35.163Z,1.40
2022-10-03T22:26:26.941Z,1.63
2022-10-03T22:29:12.619Z,1.52
2022-10-03T22:31:50.281Z,1.35
2022-10-03T22:34:35.051Z,1.30
2022-10-03T22:37:02.760Z,1.30
2022-10-03T22:39:30.736Z,1.15
2022-10-03T22:42:03.226Z,1.30
2022-10-03T22:44:34.266Z,1.10
2022-10-03T22:47:15.783Z,1.35
2022-10-03T22:49:46.140Z,1.20
2022-10-03T22:52:27.287Z,0.90
2022-10-03T22:54:56.752Z,1.13
2022-10-03T22:57:25.710Z,0.85
2022-10-03T23:00:14.894Z,0.82
2022-10-03T23:02:51.285Z,1.05
2022-10-03T23:05:40.700Z,1.00
2022-10-03T23:08:17.333Z,1.17
2022-10-03T23:11:04.429Z,0.90
2022-10-03T23:13:39.515Z,5.20
2022-10-03T23:16:29.226Z,9.90
2022-10-03T23:19:22.880Z,1.00
2022-10-03T23:21:51.740Z,0.80
2022-10-03T23:24:37.116Z,0.60
2022-10-03T23:27:34.890Z,0.90
2022-10-03T23:30:17.330Z,1.30
2022-10-03T23:32:47.394Z,2.85
2022-10-03T23:35:30.955Z,7.07
2022-10-03T23:38:01.561Z,1.48
2022-10-03T23:40:47.579Z,0.85
2022-10-03T23:43:33.634Z,10.55
2022-10-03T23:46:04.525Z,3.42
2022-10-03T23:48:42.809Z,1.10
2022-10-03T23:51:15.273Z,1.13
2022-10-03T23:53:47.046Z,1.30
2022-10-03T23:56:41.308Z,1.30
2022-10-03T23:59:16.036Z,1.25
